sensor_id;sensor_type;location;lat;lon;timestamp;temperature;humidity
7902;DHT22;3996;49.674;10.716;2023-02-01T00:00:58;4.40;84.30
7902;DHT22;3996;49.674;10.716;2023-02-01T00:03:24;4.40;84.40
7902;DHT22;3996;49.674;10.716;2023-02-01T00:05:57;4.40;84.40
7902;DHT22;3996;49.674;10.716;2023-02-01T00:08:23;4.40;84.70
7902;DHT22;3996;49.674;10.716;2023-02-01T00:10:48;4.40;85.10
7902;DHT22;3996;49.674;10.716;2023-02-01T00:13:14;4.40;85.10
7902;DHT22;3996;49.674;10.716;2023-02-01T00:15:39;4.40;85.40
7902;DHT22;3996;49.674;10.716;2023-02-01T00:18:05;4.40;85.40
7902;DHT22;3996;49.674;10.716;2023-02-01T00:20:31;4.50;85.40
7902;DHT22;3996;49.674;10.716;2023-02-01T00:22:56;4.50;85.20
7902;DHT22;3996;49.674;10.716;2023-02-01T00:25:22;4.50;85.10
7902;DHT22;3996;49.674;10.716;2023-02-01T00:27:50;4.50;84.80
7902;DHT22;3996;49.674;10.716;2023-02-01T00:30:17;4.50;84.80
7902;DHT22;3996;49.674;10.716;2023-02-01T00:32:43;4.50;84.50
7902;DHT22;3996;49.674;10.716;2023-02-01T00:35:08;4.60;83.90
7902;DHT22;3996;49.674;10.716;2023-02-01T00:37:34;4.60;84.00
7902;DHT22;3996;49.674;10.716;2023-02-01T00:40:00;4.50;84.50
7902;DHT22;3996;49.674;10.716;2023-02-01T00:42:25;4.50;84.30
7902;DHT22;3996;49.674;10.716;2023-02-01T00:44:51;4.50;84.30
7902;DHT22;3996;49.674;10.716;2023-02-01T00:47:16;4.60;84.30
7902;DHT22;3996;49.674;10.716;2023-02-01T00:49:42;4.60;84.20
7902;DHT22;3996;49.674;10.716;2023-02-01T00:52:07;4.60;84.10
7902;DHT22;3996;49.674;10.716;2023-02-01T00:54:33;4.60;84.10
7902;DHT22;3996;49.674;10.716;2023-02-01T00:56:58;4.60;84.20
7902;DHT22;3996;49.674;10.716;2023-02-01T00:59:24;4.60;84.20
7902;DHT22;3996;49.674;10.716;2023-02-01T01:01:49;4.60;83.60
7902;DHT22;3996;49.674;10.716;2023-02-01T01:04:15;4.60;83.50
7902;DHT22;3996;49.674;10.716;2023-02-01T01:06:40;4.60;83.60
7902;DHT22;3996;49.674;10.716;2023-02-01T01:09:07;4.60;83.60
7902;DHT22;3996;49.674;10.716;2023-02-01T01:11:37;4.60;83.90
7902;DHT22;3996;49.674;10.716;2023-02-01T01:14:04;4.60;84.00
7902;DHT22;3996;49.674;10.716;2023-02-01T01:16:31;4.60;84.00
7902;DHT22;3996;49.674;10.716;2023-02-01T01:18:57;4.60;84.70
7902;DHT22;3996;49.674;10.716;2023-02-01T01:21:23;4.60;84.30
7902;DHT22;3996;49.674;10.716;2023-02-01T01:23:49;4.60;84.40
7902;DHT22;3996;49.674;10.716;2023-02-01T01:26:17;4.50;84.80
7902;DHT22;3996;49.674;10.716;2023-02-01T01:28:43;4.50;84.80
7902;DHT22;3996;49.674;10.716;2023-02-01T01:31:14;4.50;84.80
7902;DHT22;3996;49.674;10.716;2023-02-01T01:33:40;4.50;84.80
7902;DHT22;3996;49.674;10.716;2023-02-01T01:36:07;4.60;84.80
7902;DHT22;3996;49.674;10.716;2023-02-01T01:38:35;4.60;84.30
7902;DHT22;3996;49.674;10.716;2023-02-01T01:41:00;4.60;83.90
7902;DHT22;3996;49.674;10.716;2023-02-01T01:46:16;4.60;83.70
7902;DHT22;3996;49.674;10.716;2023-02-01T01:48:42;4.60;84.20
7902;DHT22;3996;49.674;10.716;2023-02-01T01:51:10;4.50;84.50
7902;DHT22;3996;49.674;10.716;2023-02-01T01:53:48;4.50;84.70
7902;DHT22;3996;49.674;10.716;2023-02-01T01:56:15;4.60;84.70
7902;DHT22;3996;49.674;10.716;2023-02-01T01:58:41;4.60;84.10
7902;DHT22;3996;49.674;10.716;2023-02-01T02:01:07;4.60;84.00
7902;DHT22;3996;49.674;10.716;2023-02-01T02:03:35;4.60;84.10
7902;DHT22;3996;49.674;10.716;2023-02-01T02:06:08;4.60;83.80
7902;DHT22;3996;49.674;10.716;2023-02-01T02:08:39;4.60;83.80
7902;DHT22;3996;49.674;10.716;2023-02-01T02:11:04;4.60;83.50
7902;DHT22;3996;49.674;10.716;2023-02-01T02:13:42;4.60;83.50
7902;DHT22;3996;49.674;10.716;2023-02-01T02:36:00;4.70;83.10
7902;DHT22;3996;49.674;10.716;2023-02-01T02:38:41;4.70;82.30
7902;DHT22;3996;49.674;10.716;2023-02-01T02:41:18;4.70;82.50
7902;DHT22;3996;49.674;10.716;2023-02-01T02:44:53;4.70;82.90
7902;DHT22;3996;49.674;10.716;2023-02-01T02:47:44;4.70;82.80
7902;DHT22;3996;49.674;10.716;2023-02-01T02:56:12;4.70;83.00
7902;DHT22;3996;49.674;10.716;2023-02-01T02:58:56;4.70;82.40
7902;DHT22;3996;49.674;10.716;2023-02-01T03:01:42;4.70;83.00
7902;DHT22;3996;49.674;10.716;2023-02-01T03:04:27;4.60;83.40
7902;DHT22;3996;49.674;10.716;2023-02-01T03:06:53;4.70;83.00
7902;DHT22;3996;49.674;10.716;2023-02-01T03:09:26;4.70;82.40
7902;DHT22;3996;49.674;10.716;2023-02-01T03:11:57;4.70;82.40
7902;DHT22;3996;49.674;10.716;2023-02-01T03:14:43;4.70;82.60
7902;DHT22;3996;49.674;10.716;2023-02-01T03:17:15;4.60;82.90
7902;DHT22;3996;49.674;10.716;2023-02-01T03:19:46;4.70;83.00
7902;DHT22;3996;49.674;10.716;2023-02-01T03:22:20;4.70;82.20
7902;DHT22;3996;49.674;10.716;2023-02-01T03:24:49;4.70;82.40
7902;DHT22;3996;49.674;10.716;2023-02-01T03:29:54;4.60;83.20
7902;DHT22;3996;49.674;10.716;2023-02-01T03:32:21;4.60;83.10
7902;DHT22;3996;49.674;10.716;2023-02-01T03:34:47;4.70;82.90
7902;DHT22;3996;49.674;10.716;2023-02-01T03:37:19;4.70;82.90
7902;DHT22;3996;49.674;10.716;2023-02-01T03:40:07;4.70;83.00
7902;DHT22;3996;49.674;10.716;2023-02-01T03:42:45;4.70;82.80
7902;DHT22;3996;49.674;10.716;2023-02-01T03:45:18;4.60;83.50
7902;DHT22;3996;49.674;10.716;2023-02-01T03:47:49;4.70;84.10
7902;DHT22;3996;49.674;10.716;2023-02-01T03:50:20;4.70;84.00
7902;DHT22;3996;49.674;10.716;2023-02-01T03:53:16;4.70;84.60
7902;DHT22;3996;49.674;10.716;2023-02-01T03:55:43;4.70;84.90
7902;DHT22;3996;49.674;10.716;2023-02-01T03:58:22;4.70;84.90
7902;DHT22;3996;49.674;10.716;2023-02-01T04:00:57;4.70;85.50
7902;DHT22;3996;49.674;10.716;2023-02-01T04:03:23;4.60;85.90
7902;DHT22;3996;49.674;10.716;2023-02-01T04:05:50;4.60;86.00
7902;DHT22;3996;49.674;10.716;2023-02-01T04:08:18;4.60;86.30
7902;DHT22;3996;49.674;10.716;2023-02-01T04:10:43;4.60;86.50
7902;DHT22;3996;49.674;10.716;2023-02-01T04:13:09;4.60;86.40
7902;DHT22;3996;49.674;10.716;2023-02-01T04:15:35;4.60;86.40
7902;DHT22;3996;49.674;10.716;2023-02-01T04:18:01;4.60;86.10
7902;DHT22;3996;49.674;10.716;2023-02-01T04:20:27;4.60;85.90
7902;DHT22;3996;49.674;10.716;2023-02-01T04:22:52;4.70;86.20
7902;DHT22;3996;49.674;10.716;2023-02-01T04:25:18;4.60;86.00
7902;DHT22;3996;49.674;10.716;2023-02-01T04:27:44;4.60;86.00
7902;DHT22;3996;49.674;10.716;2023-02-01T04:30:10;4.60;86.10
7902;DHT22;3996;49.674;10.716;2023-02-01T04:32:37;4.70;86.10
7902;DHT22;3996;49.674;10.716;2023-02-01T04:35:03;4.70;86.10
7902;DHT22;3996;49.674;10.716;2023-02-01T04:37:28;4.70;84.90
7902;DHT22;3996;49.674;10.716;2023-02-01T04:39:54;4.70;85.70
7902;DHT22;3996;49.674;10.716;2023-02-01T04:42:20;4.70;86.60
7902;DHT22;3996;49.674;10.716;2023-02-01T04:44:46;4.60;86.40
7902;DHT22;3996;49.674;10.716;2023-02-01T04:47:12;4.60;86.20
7902;DHT22;3996;49.674;10.716;2023-02-01T04:49:37;4.60;86.50
7902;DHT22;3996;49.674;10.716;2023-02-01T04:52:03;4.60;86.50
7902;DHT22;3996;49.674;10.716;2023-02-01T04:54:29;4.60;86.40
7902;DHT22;3996;49.674;10.716;2023-02-01T04:56:54;4.60;86.10
7902;DHT22;3996;49.674;10.716;2023-02-01T04:59:20;4.60;85.90
7902;DHT22;3996;49.674;10.716;2023-02-01T05:01:46;4.60;85.80
7902;DHT22;3996;49.674;10.716;2023-02-01T05:04:11;4.60;85.80
7902;DHT22;3996;49.674;10.716;2023-02-01T05:06:37;4.60;84.80
7902;DHT22;3996;49.674;10.716;2023-02-01T05:09:02;4.60;84.30
7902;DHT22;3996;49.674;10.716;2023-02-01T05:11:28;4.60;84.50
7902;DHT22;3996;49.674;10.716;2023-02-01T05:14:12;4.60;84.50
7902;DHT22;3996;49.674;10.716;2023-02-01T05:16:38;4.50;84.10
7902;DHT22;3996;49.674;10.716;2023-02-01T05:19:03;4.50;83.90
7902;DHT22;3996;49.674;10.716;2023-02-01T05:21:29;4.50;83.40
7902;DHT22;3996;49.674;10.716;2023-02-01T05:23:54;4.50;82.40
7902;DHT22;3996;49.674;10.716;2023-02-01T05:26:36;4.50;82.80
7902;DHT22;3996;49.674;10.716;2023-02-01T05:29:03;4.50;81.70
7902;DHT22;3996;49.674;10.716;2023-02-01T05:31:29;4.50;81.10
7902;DHT22;3996;49.674;10.716;2023-02-01T05:33:54;4.50;80.70
7902;DHT22;3996;49.674;10.716;2023-02-01T05:36:20;4.40;81.00
7902;DHT22;3996;49.674;10.716;2023-02-01T05:38:45;4.40;81.10
7902;DHT22;3996;49.674;10.716;2023-02-01T05:41:11;4.40;82.30
7902;DHT22;3996;49.674;10.716;2023-02-01T05:43:37;4.40;82.30
7902;DHT22;3996;49.674;10.716;2023-02-01T05:46:03;4.40;81.80
7902;DHT22;3996;49.674;10.716;2023-02-01T05:48:28;4.30;81.70
7902;DHT22;3996;49.674;10.716;2023-02-01T05:50:54;4.40;81.70
7902;DHT22;3996;49.674;10.716;2023-02-01T05:53:19;4.30;81.60
7902;DHT22;3996;49.674;10.716;2023-02-01T05:55:45;4.40;81.90
7902;DHT22;3996;49.674;10.716;2023-02-01T05:58:11;4.40;81.40
7902;DHT22;3996;49.674;10.716;2023-02-01T06:00:38;4.40;81.00
7902;DHT22;3996;49.674;10.716;2023-02-01T06:03:03;4.30;80.70
7902;DHT22;3996;49.674;10.716;2023-02-01T06:05:29;4.30;81.50
7902;DHT22;3996;49.674;10.716;2023-02-01T06:07:54;4.30;81.20
7902;DHT22;3996;49.674;10.716;2023-02-01T06:10:20;4.30;81.20
7902;DHT22;3996;49.674;10.716;2023-02-01T06:12:46;4.30;81.10
7902;DHT22;3996;49.674;10.716;2023-02-01T06:15:13;4.20;80.90
7902;DHT22;3996;49.674;10.716;2023-02-01T06:17:41;4.20;81.70
7902;DHT22;3996;49.674;10.716;2023-02-01T06:20:09;4.20;81.40
7902;DHT22;3996;49.674;10.716;2023-02-01T06:22:35;4.20;81.60
7902;DHT22;3996;49.674;10.716;2023-02-01T06:25:03;4.20;82.10
7902;DHT22;3996;49.674;10.716;2023-02-01T06:27:29;4.20;82.50
7902;DHT22;3996;49.674;10.716;2023-02-01T06:29:55;4.20;82.20
7902;DHT22;3996;49.674;10.716;2023-02-01T06:32:21;4.30;83.00
7902;DHT22;3996;49.674;10.716;2023-02-01T06:34:46;4.30;83.40
7902;DHT22;3996;49.674;10.716;2023-02-01T06:37:12;4.30;82.60
7902;DHT22;3996;49.674;10.716;2023-02-01T06:39:37;4.30;82.40
7902;DHT22;3996;49.674;10.716;2023-02-01T06:42:03;4.20;82.60
7902;DHT22;3996;49.674;10.716;2023-02-01T06:44:29;4.20;83.20
7902;DHT22;3996;49.674;10.716;2023-02-01T06:46:55;4.10;82.80
7902;DHT22;3996;49.674;10.716;2023-02-01T06:49:21;4.10;82.70
7902;DHT22;3996;49.674;10.716;2023-02-01T06:51:47;4.20;82.80
7902;DHT22;3996;49.674;10.716;2023-02-01T06:54:12;4.20;82.10
7902;DHT22;3996;49.674;10.716;2023-02-01T06:56:38;4.20;81.90
7902;DHT22;3996;49.674;10.716;2023-02-01T06:59:05;4.20;82.10
7902;DHT22;3996;49.674;10.716;2023-02-01T07:01:31;4.20;82.00
7902;DHT22;3996;49.674;10.716;2023-02-01T07:03:57;4.20;81.90
7902;DHT22;3996;49.674;10.716;2023-02-01T07:06:23;4.20;82.00
7902;DHT22;3996;49.674;10.716;2023-02-01T07:08:48;4.30;81.90
7902;DHT22;3996;49.674;10.716;2023-02-01T07:11:16;4.30;81.80
7902;DHT22;3996;49.674;10.716;2023-02-01T07:13:42;4.30;81.40
7902;DHT22;3996;49.674;10.716;2023-02-01T07:16:13;4.30;81.40
7902;DHT22;3996;49.674;10.716;2023-02-01T07:18:39;4.40;81.00
7902;DHT22;3996;49.674;10.716;2023-02-01T07:21:04;4.40;80.60
7902;DHT22;3996;49.674;10.716;2023-02-01T07:23:30;4.30;81.60
7902;DHT22;3996;49.674;10.716;2023-02-01T07:25:57;4.40;81.80
7902;DHT22;3996;49.674;10.716;2023-02-01T07:28:24;4.40;81.00
7902;DHT22;3996;49.674;10.716;2023-02-01T07:30:49;4.50;80.80
7902;DHT22;3996;49.674;10.716;2023-02-01T07:33:22;4.50;81.50
7902;DHT22;3996;49.674;10.716;2023-02-01T07:35:49;4.50;81.50
7902;DHT22;3996;49.674;10.716;2023-02-01T07:38:16;4.50;81.60
7902;DHT22;3996;49.674;10.716;2023-02-01T07:40:42;4.60;81.70
7902;DHT22;3996;49.674;10.716;2023-02-01T07:43:08;4.70;82.00
7902;DHT22;3996;49.674;10.716;2023-02-01T07:45:35;4.90;82.40
7902;DHT22;3996;49.674;10.716;2023-02-01T07:48:01;4.80;79.90
7902;DHT22;3996;49.674;10.716;2023-02-01T07:50:28;4.80;80.00
7902;DHT22;3996;49.674;10.716;2023-02-01T07:52:53;4.70;80.10
7902;DHT22;3996;49.674;10.716;2023-02-01T07:55:20;4.80;79.60
7902;DHT22;3996;49.674;10.716;2023-02-01T07:57:45;4.90;78.90
7902;DHT22;3996;49.674;10.716;2023-02-01T08:00:11;4.90;78.80
7902;DHT22;3996;49.674;10.716;2023-02-01T08:03:00;4.90;78.60
7902;DHT22;3996;49.674;10.716;2023-02-01T08:05:26;4.80;79.50
7902;DHT22;3996;49.674;10.716;2023-02-01T08:07:52;4.80;79.30
7902;DHT22;3996;49.674;10.716;2023-02-01T08:10:18;4.90;79.50
7902;DHT22;3996;49.674;10.716;2023-02-01T08:12:45;4.90;79.00
7902;DHT22;3996;49.674;10.716;2023-02-01T08:15:17;4.90;79.50
7902;DHT22;3996;49.674;10.716;2023-02-01T08:17:50;4.90;80.20
7902;DHT22;3996;49.674;10.716;2023-02-01T08:20:19;4.90;79.00
7902;DHT22;3996;49.674;10.716;2023-02-01T08:22:47;4.90;77.80
7902;DHT22;3996;49.674;10.716;2023-02-01T08:25:12;5.00;76.90
7902;DHT22;3996;49.674;10.716;2023-02-01T08:27:38;5.20;75.30
7902;DHT22;3996;49.674;10.716;2023-02-01T08:30:04;5.20;74.20
7902;DHT22;3996;49.674;10.716;2023-02-01T08:32:33;5.30;74.30
7902;DHT22;3996;49.674;10.716;2023-02-01T08:34:59;5.30;73.20
7902;DHT22;3996;49.674;10.716;2023-02-01T08:37:24;5.40;72.90
7902;DHT22;3996;49.674;10.716;2023-02-01T08:39:50;5.40;73.20
7902;DHT22;3996;49.674;10.716;2023-02-01T08:42:16;5.50;70.90
7902;DHT22;3996;49.674;10.716;2023-02-01T08:45:01;5.40;70.60
7902;DHT22;3996;49.674;10.716;2023-02-01T08:47:28;5.30;71.20
7902;DHT22;3996;49.674;10.716;2023-02-01T08:49:54;5.60;69.70
7902;DHT22;3996;49.674;10.716;2023-02-01T08:52:19;5.70;68.40
7902;DHT22;3996;49.674;10.716;2023-02-01T08:54:45;6.20;64.40
7902;DHT22;3996;49.674;10.716;2023-02-01T08:57:10;7.80;59.70
7902;DHT22;3996;49.674;10.716;2023-02-01T08:59:36;9.00;49.90
7902;DHT22;3996;49.674;10.716;2023-02-01T09:02:02;8.40;48.80
7902;DHT22;3996;49.674;10.716;2023-02-01T09:04:27;7.70;52.50
7902;DHT22;3996;49.674;10.716;2023-02-01T09:06:53;7.70;52.00
7902;DHT22;3996;49.674;10.716;2023-02-01T09:09:21;8.30;52.40
7902;DHT22;3996;49.674;10.716;2023-02-01T09:11:47;8.40;50.20
7902;DHT22;3996;49.674;10.716;2023-02-01T09:14:13;9.10;48.00
7902;DHT22;3996;49.674;10.716;2023-02-01T09:16:38;9.30;46.90
7902;DHT22;3996;49.674;10.716;2023-02-01T09:19:04;9.40;44.70
7902;DHT22;3996;49.674;10.716;2023-02-01T09:21:29;8.70;45.30
7902;DHT22;3996;49.674;10.716;2023-02-01T09:23:55;8.10;48.40
7902;DHT22;3996;49.674;10.716;2023-02-01T09:26:21;7.50;49.60
7902;DHT22;3996;49.674;10.716;2023-02-01T09:28:46;6.90;53.10
7902;DHT22;3996;49.674;10.716;2023-02-01T09:31:12;6.70;54.50
7902;DHT22;3996;49.674;10.716;2023-02-01T09:33:37;6.60;56.50
7902;DHT22;3996;49.674;10.716;2023-02-01T09:36:04;6.40;55.50
7902;DHT22;3996;49.674;10.716;2023-02-01T09:38:31;6.30;55.40
7902;DHT22;3996;49.674;10.716;2023-02-01T09:40:58;7.30;52.90
7902;DHT22;3996;49.674;10.716;2023-02-01T09:48:43;7.20;48.40
7902;DHT22;3996;49.674;10.716;2023-02-01T09:51:17;6.90;50.50
7902;DHT22;3996;49.674;10.716;2023-02-01T09:53:48;6.60;51.80
7902;DHT22;3996;49.674;10.716;2023-02-01T09:56:42;6.60;52.20
7902;DHT22;3996;49.674;10.716;2023-02-01T09:59:43;6.60;52.10
7902;DHT22;3996;49.674;10.716;2023-02-01T10:02:24;6.60;52.20
7902;DHT22;3996;49.674;10.716;2023-02-01T10:04:55;6.50;52.70
7902;DHT22;3996;49.674;10.716;2023-02-01T10:28:38;6.20;57.80
7902;DHT22;3996;49.674;10.716;2023-02-01T10:31:05;6.30;58.60
7902;DHT22;3996;49.674;10.716;2023-02-01T10:36:14;6.40;58.70
7902;DHT22;3996;49.674;10.716;2023-02-01T10:38:42;6.40;56.80
7902;DHT22;3996;49.674;10.716;2023-02-01T10:41:21;6.30;58.60
7902;DHT22;3996;49.674;10.716;2023-02-01T10:43:52;6.30;58.40
7902;DHT22;3996;49.674;10.716;2023-02-01T10:46:18;6.20;59.50
7902;DHT22;3996;49.674;10.716;2023-02-01T10:48:44;6.20;59.40
7902;DHT22;3996;49.674;10.716;2023-02-01T10:51:28;6.30;58.20
7902;DHT22;3996;49.674;10.716;2023-02-01T10:54:04;6.40;57.20
7902;DHT22;3996;49.674;10.716;2023-02-01T10:56:37;6.30;55.40
7902;DHT22;3996;49.674;10.716;2023-02-01T10:59:05;6.30;55.40
7902;DHT22;3996;49.674;10.716;2023-02-01T11:01:37;6.20;56.10
7902;DHT22;3996;49.674;10.716;2023-02-01T11:04:09;6.20;56.50
7902;DHT22;3996;49.674;10.716;2023-02-01T11:09:31;6.10;57.20
7902;DHT22;3996;49.674;10.716;2023-02-01T11:11:58;6.20;55.60
7902;DHT22;3996;49.674;10.716;2023-02-01T11:16:53;6.40;55.50
7902;DHT22;3996;49.674;10.716;2023-02-01T11:19:19;6.50;54.20
7902;DHT22;3996;49.674;10.716;2023-02-01T11:21:50;6.50;54.10
7902;DHT22;3996;49.674;10.716;2023-02-01T11:24:33;6.70;54.00
7902;DHT22;3996;49.674;10.716;2023-02-01T11:27:04;6.90;54.00
7902;DHT22;3996;49.674;10.716;2023-02-01T11:29:39;7.10;51.20
7902;DHT22;3996;49.674;10.716;2023-02-01T11:32:08;7.30;50.90
7902;DHT22;3996;49.674;10.716;2023-02-01T11:34:48;7.30;50.70
7902;DHT22;3996;49.674;10.716;2023-02-01T11:37:27;7.30;48.10
7902;DHT22;3996;49.674;10.716;2023-02-01T11:39:58;7.20;46.70
7902;DHT22;3996;49.674;10.716;2023-02-01T11:42:25;7.20;47.90
7902;DHT22;3996;49.674;10.716;2023-02-01T11:47:56;7.10;45.80
7902;DHT22;3996;49.674;10.716;2023-02-01T11:50:44;7.00;45.60
7902;DHT22;3996;49.674;10.716;2023-02-01T11:56:01;6.70;45.80
7902;DHT22;3996;49.674;10.716;2023-02-01T11:58:54;6.70;44.70
7902;DHT22;3996;49.674;10.716;2023-02-01T12:01:28;6.60;44.30
7902;DHT22;3996;49.674;10.716;2023-02-01T12:04:16;6.60;43.70
7902;DHT22;3996;49.674;10.716;2023-02-01T12:06:55;6.60;44.00
7902;DHT22;3996;49.674;10.716;2023-02-01T12:14:33;6.90;41.50
7902;DHT22;3996;49.674;10.716;2023-02-01T12:22:53;6.70;41.50
7902;DHT22;3996;49.674;10.716;2023-02-01T12:25:53;6.80;42.20
7902;DHT22;3996;49.674;10.716;2023-02-01T12:31:29;6.80;41.70
7902;DHT22;3996;49.674;10.716;2023-02-01T12:38:57;6.60;40.30
7902;DHT22;3996;49.674;10.716;2023-02-01T12:41:51;6.60;41.20
7902;DHT22;3996;49.674;10.716;2023-02-01T12:46:48;6.50;43.00
7902;DHT22;3996;49.674;10.716;2023-02-01T12:49:30;6.50;44.10
7902;DHT22;3996;49.674;10.716;2023-02-01T12:52:01;6.50;44.00
7902;DHT22;3996;49.674;10.716;2023-02-01T12:57:12;6.50;45.10
7902;DHT22;3996;49.674;10.716;2023-02-01T13:00:19;6.50;45.00
7902;DHT22;3996;49.674;10.716;2023-02-01T13:02:43;6.50;44.60
7902;DHT22;3996;49.674;10.716;2023-02-01T13:05:13;6.50;44.90
7902;DHT22;3996;49.674;10.716;2023-02-01T13:08:00;6.50;45.00
7902;DHT22;3996;49.674;10.716;2023-02-01T13:18:36;6.50;42.90
7902;DHT22;3996;49.674;10.716;2023-02-01T13:21:24;6.50;43.70
7902;DHT22;3996;49.674;10.716;2023-02-01T13:23:50;6.50;43.30
7902;DHT22;3996;49.674;10.716;2023-02-01T13:26:17;6.50;43.50
7902;DHT22;3996;49.674;10.716;2023-02-01T13:42:11;6.60;42.90
7902;DHT22;3996;49.674;10.716;2023-02-01T13:44:46;6.70;43.50
7902;DHT22;3996;49.674;10.716;2023-02-01T13:49:48;6.70;44.10
7902;DHT22;3996;49.674;10.716;2023-02-01T13:52:36;6.70;45.00
7902;DHT22;3996;49.674;10.716;2023-02-01T13:57:42;6.60;45.60
7902;DHT22;3996;49.674;10.716;2023-02-01T14:00:41;6.60;46.60
7902;DHT22;3996;49.674;10.716;2023-02-01T14:03:22;6.50;46.90
7902;DHT22;3996;49.674;10.716;2023-02-01T14:11:43;6.40;47.50
7902;DHT22;3996;49.674;10.716;2023-02-01T14:16:44;6.30;45.80
7902;DHT22;3996;49.674;10.716;2023-02-01T14:19:28;6.30;46.70
7902;DHT22;3996;49.674;10.716;2023-02-01T14:21:59;6.30;45.30
7902;DHT22;3996;49.674;10.716;2023-02-01T14:24:29;6.20;45.60
7902;DHT22;3996;49.674;10.716;2023-02-01T14:26:57;6.20;46.10
7902;DHT22;3996;49.674;10.716;2023-02-01T14:55:45;6.20;45.40
7902;DHT22;3996;49.674;10.716;2023-02-01T15:01:13;6.20;45.90
7902;DHT22;3996;49.674;10.716;2023-02-01T15:06:32;6.10;45.90
7902;DHT22;3996;49.674;10.716;2023-02-01T15:09:10;6.10;45.80
7902;DHT22;3996;49.674;10.716;2023-02-01T15:11:59;6.10;46.60
7902;DHT22;3996;49.674;10.716;2023-02-01T15:14:26;6.10;46.80
7902;DHT22;3996;49.674;10.716;2023-02-01T15:16:52;6.10;47.90
7902;DHT22;3996;49.674;10.716;2023-02-01T15:19:26;6.00;47.70
7902;DHT22;3996;49.674;10.716;2023-02-01T15:21:55;6.00;48.40
7902;DHT22;3996;49.674;10.716;2023-02-01T15:24:27;6.00;48.00
7902;DHT22;3996;49.674;10.716;2023-02-01T15:26:54;6.10;48.20
7902;DHT22;3996;49.674;10.716;2023-02-01T15:29:22;6.10;49.00
7902;DHT22;3996;49.674;10.716;2023-02-01T15:31:52;6.30;51.10
7902;DHT22;3996;49.674;10.716;2023-02-01T15:34:18;6.30;49.90
7902;DHT22;3996;49.674;10.716;2023-02-01T15:36:45;6.30;52.40
7902;DHT22;3996;49.674;10.716;2023-02-01T15:41:38;6.40;49.10
7902;DHT22;3996;49.674;10.716;2023-02-01T15:44:12;6.40;51.80
7902;DHT22;3996;49.674;10.716;2023-02-01T15:46:41;6.40;48.50
7902;DHT22;3996;49.674;10.716;2023-02-01T15:49:37;6.30;50.30
7902;DHT22;3996;49.674;10.716;2023-02-01T15:52:18;6.20;48.30
7902;DHT22;3996;49.674;10.716;2023-02-01T15:54:48;6.10;49.70
7902;DHT22;3996;49.674;10.716;2023-02-01T15:57:35;6.10;48.30
7902;DHT22;3996;49.674;10.716;2023-02-01T16:00:07;6.00;48.20
7902;DHT22;3996;49.674;10.716;2023-02-01T16:02:57;6.00;48.10
7902;DHT22;3996;49.674;10.716;2023-02-01T16:08:13;6.00;46.70
7902;DHT22;3996;49.674;10.716;2023-02-01T16:10:44;6.00;46.10
7902;DHT22;3996;49.674;10.716;2023-02-01T16:13:11;6.00;45.60
7902;DHT22;3996;49.674;10.716;2023-02-01T16:15:38;6.00;46.00
7902;DHT22;3996;49.674;10.716;2023-02-01T16:18:04;6.00;46.00
7902;DHT22;3996;49.674;10.716;2023-02-01T16:20:30;6.00;46.70
7902;DHT22;3996;49.674;10.716;2023-02-01T16:22:56;6.00;46.70
7902;DHT22;3996;49.674;10.716;2023-02-01T16:25:22;5.90;46.90
7902;DHT22;3996;49.674;10.716;2023-02-01T16:27:47;5.90;46.60
7902;DHT22;3996;49.674;10.716;2023-02-01T16:30:13;5.90;46.60
7902;DHT22;3996;49.674;10.716;2023-02-01T16:32:39;5.90;46.20
7902;DHT22;3996;49.674;10.716;2023-02-01T16:35:21;5.90;45.90
7902;DHT22;3996;49.674;10.716;2023-02-01T16:37:47;6.00;49.20
7902;DHT22;3996;49.674;10.716;2023-02-01T16:40:17;6.10;46.80
7902;DHT22;3996;49.674;10.716;2023-02-01T16:42:43;6.10;45.90
7902;DHT22;3996;49.674;10.716;2023-02-01T16:45:10;6.00;45.20
7902;DHT22;3996;49.674;10.716;2023-02-01T16:47:38;6.00;47.00
7902;DHT22;3996;49.674;10.716;2023-02-01T16:50:15;6.00;45.30
7902;DHT22;3996;49.674;10.716;2023-02-01T16:52:41;6.00;44.50
7902;DHT22;3996;49.674;10.716;2023-02-01T16:55:15;5.90;44.70
7902;DHT22;3996;49.674;10.716;2023-02-01T16:57:42;5.90;45.00
7902;DHT22;3996;49.674;10.716;2023-02-01T17:00:09;5.90;45.30
7902;DHT22;3996;49.674;10.716;2023-02-01T17:02:35;5.90;45.90
7902;DHT22;3996;49.674;10.716;2023-02-01T17:05:00;5.90;45.40
7902;DHT22;3996;49.674;10.716;2023-02-01T17:07:26;5.90;45.60
7902;DHT22;3996;49.674;10.716;2023-02-01T17:09:52;5.80;45.70
7902;DHT22;3996;49.674;10.716;2023-02-01T17:12:28;5.80;46.60
7902;DHT22;3996;49.674;10.716;2023-02-01T17:14:55;5.80;45.70
7902;DHT22;3996;49.674;10.716;2023-02-01T17:17:21;5.80;46.00
7902;DHT22;3996;49.674;10.716;2023-02-01T17:19:50;5.90;45.60
7902;DHT22;3996;49.674;10.716;2023-02-01T17:22:19;5.80;46.10
7902;DHT22;3996;49.674;10.716;2023-02-01T17:24:45;5.80;45.50
7902;DHT22;3996;49.674;10.716;2023-02-01T17:27:11;5.80;45.90
7902;DHT22;3996;49.674;10.716;2023-02-01T17:29:36;5.80;46.40
7902;DHT22;3996;49.674;10.716;2023-02-01T17:32:03;5.90;46.40
7902;DHT22;3996;49.674;10.716;2023-02-01T17:34:29;5.80;47.00
7902;DHT22;3996;49.674;10.716;2023-02-01T17:36:55;5.70;48.60
7902;DHT22;3996;49.674;10.716;2023-02-01T17:39:21;5.80;48.90
7902;DHT22;3996;49.674;10.716;2023-02-01T17:42:10;5.70;49.50
7902;DHT22;3996;49.674;10.716;2023-02-01T17:44:36;5.70;49.30
7902;DHT22;3996;49.674;10.716;2023-02-01T17:47:01;5.70;49.80
7902;DHT22;3996;49.674;10.716;2023-02-01T17:49:27;5.60;49.60
7902;DHT22;3996;49.674;10.716;2023-02-01T17:51:53;5.70;48.50
7902;DHT22;3996;49.674;10.716;2023-02-01T17:54:19;5.70;50.00
7902;DHT22;3996;49.674;10.716;2023-02-01T17:56:45;5.60;50.00
7902;DHT22;3996;49.674;10.716;2023-02-01T17:59:13;5.60;49.90
7902;DHT22;3996;49.674;10.716;2023-02-01T18:01:39;5.60;50.60
7902;DHT22;3996;49.674;10.716;2023-02-01T18:04:05;5.60;49.40
7902;DHT22;3996;49.674;10.716;2023-02-01T18:06:33;5.70;48.70
7902;DHT22;3996;49.674;10.716;2023-02-01T18:08:59;5.70;48.80
7902;DHT22;3996;49.674;10.716;2023-02-01T18:11:25;5.80;47.90
7902;DHT22;3996;49.674;10.716;2023-02-01T18:13:52;5.70;48.20
7902;DHT22;3996;49.674;10.716;2023-02-01T18:16:24;5.80;47.50
7902;DHT22;3996;49.674;10.716;2023-02-01T18:18:50;5.80;47.40
7902;DHT22;3996;49.674;10.716;2023-02-01T18:21:17;5.80;46.60
7902;DHT22;3996;49.674;10.716;2023-02-01T18:23:44;5.80;46.60
7902;DHT22;3996;49.674;10.716;2023-02-01T18:26:14;5.80;46.50
7902;DHT22;3996;49.674;10.716;2023-02-01T18:28:40;5.80;46.60
7902;DHT22;3996;49.674;10.716;2023-02-01T18:31:16;5.90;46.60
7902;DHT22;3996;49.674;10.716;2023-02-01T18:33:45;5.90;46.30
7902;DHT22;3996;49.674;10.716;2023-02-01T18:36:11;5.80;46.60
7902;DHT22;3996;49.674;10.716;2023-02-01T18:38:37;5.90;46.60
7902;DHT22;3996;49.674;10.716;2023-02-01T18:41:03;5.90;46.60
7902;DHT22;3996;49.674;10.716;2023-02-01T18:43:30;5.90;46.50
7902;DHT22;3996;49.674;10.716;2023-02-01T18:45:56;5.90;46.00
7902;DHT22;3996;49.674;10.716;2023-02-01T18:48:22;5.90;46.40
7902;DHT22;3996;49.674;10.716;2023-02-01T18:50:48;5.90;46.60
7902;DHT22;3996;49.674;10.716;2023-02-01T18:53:20;5.80;48.20
7902;DHT22;3996;49.674;10.716;2023-02-01T18:55:46;5.80;48.10
7902;DHT22;3996;49.674;10.716;2023-02-01T18:58:13;5.80;49.40
7902;DHT22;3996;49.674;10.716;2023-02-01T19:00:40;5.80;50.30
7902;DHT22;3996;49.674;10.716;2023-02-01T19:03:06;5.80;52.10
7902;DHT22;3996;49.674;10.716;2023-02-01T19:05:32;5.70;53.60